Time;durP1;ratioP1;P1;durP2;ratioP2;P2;SDS_P1;SDS_P2;PMS_P1;PMS_P2;Temp;Humidity;BMP_temperature;BMP_pressure;BME280_temperature;BME280_humidity;BME280_pressure;Samples;Min_cycle;Max_cycle;Signal;HPM_P1;HPM_P2
2022/04/06 00:00:11;;;;;;;5.60;2.35;;;11.50;68.90;;;;;;5015462;28;20131;-76
2022/04/06 00:02:40;;;;;;;4.25;2.08;;;11.40;69.30;;;;;;5016207;28;20037;-76
2022/04/06 00:05:10;;;;;;;6.80;2.30;;;11.30;69.00;;;;;;5031331;28;20393;-76
2022/04/06 00:07:44;;;;;;;6.85;2.60;;;11.30;68.60;;;;;;5016331;28;20030;-76
2022/04/06 00:10:12;;;;;;;5.50;2.33;;;11.30;68.50;;;;;;5014957;28;20033;-75
2022/04/06 00:12:38;;;;;;;5.43;2.50;;;11.30;68.70;;;;;;5016211;28;20030;-76
2022/04/06 00:15:07;;;;;;;5.10;3.33;;;11.10;69.20;;;;;;5016120;28;20033;-76
2022/04/06 00:17:33;;;;;;;7.47;2.60;;;11.10;69.10;;;;;;5014833;28;20049;-76
2022/04/06 00:19:59;;;;;;;4.28;2.30;;;11.00;69.10;;;;;;5030444;28;20404;-76
2022/04/06 00:22:25;;;;;;;4.70;2.33;;;11.00;69.70;;;;;;5014784;28;20128;-76
2022/04/06 00:24:51;;;;;;;5.63;2.38;;;10.80;70.10;;;;;;5015891;28;20061;-76
2022/04/06 00:27:18;;;;;;;6.63;2.50;;;10.80;69.90;;;;;;5015947;28;20026;-76
2022/04/06 00:29:44;;;;;;;5.78;2.85;;;10.80;70.10;;;;;;5014571;28;20038;-76
2022/04/06 00:32:10;;;;;;;5.72;3.00;;;10.80;69.90;;;;;;5015843;28;20121;-76
2022/04/06 00:37:20;;;;;;;6.70;2.88;;;10.80;69.90;;;;;;5016101;28;20092;-76
2022/04/06 00:39:46;;;;;;;6.28;3.08;;;10.90;70.20;;;;;;5029248;28;20034;-76
2022/04/06 00:42:12;;;;;;;8.30;2.80;;;11.00;70.00;;;;;;5015561;28;20089;-76
2022/04/06 00:44:39;;;;;;;7.05;2.92;;;11.10;69.70;;;;;;5014646;28;20494;-76
2022/04/06 00:47:05;;;;;;;10.73;3.08;;;11.10;69.80;;;;;;5015515;28;20026;-75
2022/04/06 00:49:32;;;;;;;8.80;2.67;;;11.20;69.60;;;;;;5014409;28;20034;-76
2022/04/06 00:52:01;;;;;;;7.80;3.65;;;11.20;69.50;;;;;;5015526;28;20918;-76
2022/04/06 00:54:28;;;;;;;5.93;2.78;;;11.30;69.30;;;;;;5014439;28;20120;-76
2022/04/06 00:56:54;;;;;;;6.32;2.85;;;11.30;69.00;;;;;;5015266;28;20049;-76
2022/04/06 00:59:20;;;;;;;8.30;2.63;;;11.40;69.00;;;;;;5014928;28;20496;-76
2022/04/06 01:01:47;;;;;;;6.13;2.60;;;11.40;68.80;;;;;;5030620;28;20114;-76
2022/04/06 01:04:14;;;;;;;4.53;2.20;;;11.40;68.90;;;;;;5014314;28;20034;-76
2022/04/06 01:06:41;;;;;;;3.90;2.53;;;11.50;68.70;;;;;;5015339;28;20022;-76
2022/04/06 01:09:06;;;;;;;7.75;2.95;;;11.50;68.80;;;;;;5015204;28;20022;-76
2022/04/06 01:11:32;;;;;;;9.20;2.53;;;11.50;68.80;;;;;;5015292;28;20028;-76
2022/04/06 01:13:58;;;;;;;5.75;2.50;;;11.40;68.90;;;;;;5012902;28;20021;-76
2022/04/06 01:16:24;;;;;;;4.43;2.25;;;11.40;68.90;;;;;;5030217;28;20527;-76
2022/04/06 01:18:49;;;;;;;3.83;2.28;;;11.50;68.50;;;;;;5015509;28;20435;-76
2022/04/06 01:21:15;;;;;;;5.40;3.05;;;11.50;68.80;;;;;;5014780;28;20074;-76
2022/04/06 01:23:44;;;;;;;5.30;2.20;;;11.40;68.50;;;;;;5015051;28;20030;-76
2022/04/06 01:26:11;;;;;;;4.63;2.27;;;11.40;68.30;;;;;;5012642;28;20602;-76
2022/04/06 01:28:38;;;;;;;7.47;1.60;;;11.50;68.00;;;;;;5030533;28;20030;-76
2022/04/06 01:31:04;;;;;;;5.10;2.20;;;11.50;68.00;;;;;;5013836;28;20025;-76
2022/04/06 01:33:31;;;;;;;5.10;1.75;;;11.60;68.00;;;;;;5014147;28;20026;-76
2022/04/06 01:35:58;;;;;;;4.68;2.35;;;11.50;67.90;;;;;;5030206;28;20025;-76
2022/04/06 01:38:24;;;;;;;6.28;2.13;;;11.50;67.90;;;;;;5013956;28;20033;-76
2022/04/06 01:40:51;;;;;;;3.65;2.15;;;11.50;68.00;;;;;;5030078;28;20040;-76
2022/04/06 01:43:16;;;;;;;5.05;2.00;;;11.50;68.10;;;;;;5014847;28;20418;-76
2022/04/06 01:45:43;;;;;;;4.40;1.85;;;11.50;68.10;;;;;;5013842;28;20042;-76
2022/04/06 01:48:09;;;;;;;5.60;2.13;;;11.50;68.00;;;;;;5014858;28;20030;-75
2022/04/06 01:53:19;;;;;;;6.10;2.55;;;11.50;68.20;;;;;;5015060;28;20052;-75
2022/04/06 01:55:45;;;;;;;3.70;1.70;;;11.50;68.20;;;;;;5013436;28;20544;-75
2022/04/06 01:58:11;;;;;;;5.97;1.98;;;11.50;67.90;;;;;;5028143;28;20037;-75
2022/04/06 02:00:37;;;;;;;6.70;1.83;;;11.50;68.10;;;;;;5013189;28;20034;-75
2022/04/06 02:03:03;;;;;;;2.70;1.60;;;11.50;67.90;;;;;;5013737;28;20109;-74
2022/04/06 02:05:33;;;;;;;4.70;1.60;;;11.50;67.90;;;;;;5014808;28;20057;-75
2022/04/06 02:08:00;;;;;;;4.35;1.73;;;11.50;67.90;;;;;;5014226;28;20022;-75
2022/04/06 02:10:27;;;;;;;2.75;1.77;;;11.40;68.10;;;;;;5014604;28;20026;-75
2022/04/06 02:12:55;;;;;;;4.20;2.20;;;11.40;68.40;;;;;;5014793;28;20397;-75
2022/04/06 02:15:21;;;;;;;4.85;1.77;;;11.40;68.30;;;;;;5012292;28;20026;-75
2022/04/06 02:17:48;;;;;;;4.07;1.58;;;11.50;68.30;;;;;;5017231;28;20077;-75
2022/04/06 02:20:14;;;;;;;7.68;1.70;;;11.40;68.50;;;;;;5017966;28;20040;-75
2022/04/06 02:22:41;;;;;;;5.03;2.00;;;11.40;68.30;;;;;;5017561;28;20101;-75
2022/04/06 02:25:07;;;;;;;4.63;1.30;;;11.40;68.10;;;;;;5018062;28;20396;-75
2022/04/06 02:27:33;;;;;;;3.78;1.60;;;11.50;68.20;;;;;;5018027;28;20079;-74
2022/04/06 02:29:59;;;;;;;7.72;1.88;;;11.40;68.40;;;;;;5018069;28;20105;-75
2022/04/06 02:32:24;;;;;;;4.07;2.13;;;11.40;68.40;;;;;;5017414;28;20022;-74
2022/04/06 02:34:50;;;;;;;4.35;1.75;;;11.40;68.30;;;;;;5017995;28;20061;-75
2022/04/06 02:37:16;;;;;;;3.55;1.70;;;11.40;68.30;;;;;;5016352;28;20687;-75
2022/04/06 02:39:42;;;;;;;2.15;1.33;;;11.40;68.40;;;;;;5016949;28;20230;-75
2022/04/06 02:42:07;;;;;;;4.28;2.00;;;11.30;68.30;;;;;;5017786;28;20457;-75
2022/04/06 02:44:34;;;;;;;4.68;2.03;;;11.30;68.20;;;;;;5017806;28;20109;-75
2022/04/06 02:47:00;;;;;;;4.47;1.65;;;11.30;68.40;;;;;;5016659;28;20496;-75
2022/04/06 02:49:27;;;;;;;6.90;2.10;;;11.30;68.40;;;;;;5017780;28;20049;-75
2022/04/06 02:51:52;;;;;;;2.78;1.70;;;11.40;68.20;;;;;;5016384;28;20097;-75
2022/04/06 02:54:18;;;;;;;3.55;1.75;;;11.40;68.00;;;;;;5032641;28;20463;-75
2022/04/06 02:56:44;;;;;;;4.28;2.25;;;11.40;67.90;;;;;;5031177;28;20030;-75
2022/04/06 02:59:10;;;;;;;3.72;1.85;;;11.40;68.00;;;;;;5017617;28;20048;-75
2022/04/06 03:01:36;;;;;;;2.92;1.60;;;11.40;67.70;;;;;;5017473;28;20037;-75
2022/04/06 03:04:02;;;;;;;2.83;1.80;;;11.50;67.60;;;;;;5017338;28;20030;-75
2022/04/06 03:06:27;;;;;;;2.55;1.50;;;11.40;67.40;;;;;;5016535;28;20040;-75
2022/04/06 03:08:53;;;;;;;2.70;1.70;;;11.40;67.70;;;;;;5017371;28;20025;-75
2022/04/06 03:11:19;;;;;;;2.53;1.55;;;11.30;67.70;;;;;;5029958;28;20026;-75
2022/04/06 03:13:44;;;;;;;6.30;2.17;;;11.30;67.90;;;;;;5015896;28;20017;-75
2022/04/06 03:16:10;;;;;;;3.33;1.52;;;11.30;67.70;;;;;;5016068;28;20781;-75
2022/04/06 03:18:36;;;;;;;1.63;1.52;;;11.30;67.90;;;;;;5015771;28;20129;-75
2022/04/06 03:21:01;;;;;;;4.03;2.03;;;11.10;68.70;;;;;;5016315;28;20077;-75
2022/04/06 03:23:27;;;;;;;3.28;2.00;;;11.10;68.70;;;;;;5016962;28;20496;-75
2022/04/06 03:25:53;;;;;;;3.03;1.60;;;11.20;68.40;;;;;;5016415;28;20037;-75
2022/04/06 03:28:19;;;;;;;3.88;1.40;;;11.20;68.20;;;;;;5016590;28;20034;-74
2022/04/06 03:30:45;;;;;;;3.97;1.33;;;11.30;68.20;;;;;;5016916;28;20393;-75
2022/04/06 03:33:12;;;;;;;3.35;1.90;;;11.30;68.20;;;;;;5031723;28;20109;-75
2022/04/06 03:35:38;;;;;;;2.75;1.60;;;11.30;68.00;;;;;;5015718;28;20107;-75
2022/04/06 03:38:04;;;;;;;4.00;2.10;;;11.30;68.00;;;;;;5016795;28;20029;-74
2022/04/06 03:40:30;;;;;;;2.67;1.60;;;11.30;67.90;;;;;;5016783;28;20026;-75
2022/04/06 03:42:56;;;;;;;5.00;1.90;;;11.20;67.70;;;;;;5016678;28;20370;-75
2022/04/06 03:45:22;;;;;;;3.60;1.25;;;11.20;68.50;;;;;;5016000;28;20084;-75
2022/04/06 03:47:48;;;;;;;3.00;1.70;;;11.20;68.30;;;;;;5016443;28;20022;-75
2022/04/06 03:50:14;;;;;;;3.00;1.65;;;11.20;68.70;;;;;;5016360;28;20458;-75
2022/04/06 03:52:40;;;;;;;5.35;2.10;;;11.20;68.60;;;;;;5016601;28;20451;-75
2022/04/06 03:55:08;;;;;;;4.53;2.20;;;11.30;68.40;;;;;;5015702;28;20032;-75
2022/04/06 03:57:35;;;;;;;4.82;2.03;;;11.20;68.30;;;;;;5015230;28;20034;-75
2022/04/06 04:00:04;;;;;;;7.93;2.30;;;11.20;68.60;;;;;;5015757;28;20026;-75
2022/04/06 04:02:30;;;;;;;5.85;1.90;;;11.20;68.60;;;;;;5031505;28;20036;-75
2022/04/06 04:04:55;;;;;;;3.47;1.70;;;11.20;68.50;;;;;;5015164;28;20057;-75
2022/04/06 04:07:22;;;;;;;3.65;1.55;;;11.20;68.50;;;;;;5013439;28;20453;-75
2022/04/06 04:09:49;;;;;;;3.97;1.77;;;11.20;68.40;;;;;;5015993;28;20040;-75
2022/04/06 04:12:15;;;;;;;2.97;2.08;;;11.10;68.80;;;;;;5015993;28;20014;-75
2022/04/06 04:14:40;;;;;;;3.95;1.60;;;11.10;68.70;;;;;;5013889;28;20037;-75
2022/04/06 04:17:06;;;;;;;4.32;1.77;;;11.10;69.00;;;;;;5015940;28;20077;-75
2022/04/06 04:19:32;;;;;;;4.75;1.83;;;11.20;68.70;;;;;;5016178;28;20045;-75
2022/04/06 04:21:58;;;;;;;2.97;1.98;;;11.20;68.70;;;;;;5015138;28;20033;-75
2022/04/06 04:24:24;;;;;;;4.65;1.70;;;11.20;68.50;;;;;;5015657;28;20370;-75
2022/04/06 04:26:49;;;;;;;4.10;1.77;;;11.20;68.60;;;;;;5014924;28;20433;-75
2022/04/06 04:29:15;;;;;;;3.05;1.88;;;11.10;68.80;;;;;;5014439;28;20109;-75
2022/04/06 04:31:41;;;;;;;5.22;1.85;;;11.10;68.90;;;;;;5015856;28;20026;-75
2022/04/06 04:34:07;;;;;;;4.60;1.80;;;11.10;69.30;;;;;;5030891;28;20030;-74
2022/04/06 04:36:32;;;;;;;5.80;2.15;;;11.20;69.10;;;;;;5029842;28;20034;-75
2022/04/06 04:38:58;;;;;;;5.38;1.83;;;11.00;69.20;;;;;;5015327;28;20037;-75
2022/04/06 04:41:24;;;;;;;2.63;1.50;;;11.10;69.20;;;;;;5015204;28;20030;-75
2022/04/06 04:43:50;;;;;;;4.82;1.80;;;11.10;69.40;;;;;;5014728;28;20511;-75
2022/04/06 04:46:17;;;;;;;3.25;1.80;;;11.10;69.20;;;;;;5015394;28;20030;-75
2022/04/06 04:48:44;;;;;;;3.03;1.58;;;11.10;69.20;;;;;;5014959;28;20037;-74
2022/04/06 04:51:10;;;;;;;3.88;1.48;;;11.10;69.30;;;;;;5014947;28;20030;-78
2022/04/06 04:53:35;;;;;;;6.32;1.60;;;11.10;69.50;;;;;;5014587;28;20034;-76
2022/04/06 05:15:45;;;;;;;2.00;1.40;;;9.60;74.60;;;;;;5060901;28;20427;-80
2022/04/06 05:18:11;;;;;;;3.47;1.50;;;9.60;75.00;;;;;;5060690;28;20033;-82
2022/04/06 05:20:36;;;;;;;2.20;1.42;;;9.80;74.60;;;;;;5065719;28;20025;-79
2022/04/06 05:23:02;;;;;;;2.55;1.40;;;10.10;73.80;;;;;;5071982;28;20074;-79
2022/04/06 05:25:28;;;;;;;3.70;1.83;;;10.30;72.80;;;;;;5058365;28;20024;-79
2022/04/06 05:27:55;;;;;;;2.80;1.60;;;10.60;71.90;;;;;;5051370;28;20024;-78
2022/04/06 05:30:26;;;;;;;3.55;1.88;;;10.80;71.20;;;;;;5067859;28;20028;-87
2022/04/06 05:32:54;;;;;;;3.03;1.50;;;10.80;70.80;;;;;;5083413;28;20059;-87
2022/04/06 05:35:21;;;;;;;3.80;1.77;;;10.90;70.50;;;;;;5090846;28;20103;-86
2022/04/06 05:37:47;;;;;;;4.35;1.80;;;10.90;70.70;;;;;;5063786;28;20037;-87
2022/04/06 05:40:15;;;;;;;1.90;1.52;;;10.80;70.30;;;;;;5071666;28;20643;-86
2022/04/06 05:42:42;;;;;;;3.53;1.83;;;10.90;70.30;;;;;;5072030;28;20025;-87
2022/04/06 05:45:09;;;;;;;8.13;2.20;;;10.90;70.10;;;;;;5071780;28;20033;-84
2022/04/06 05:47:35;;;;;;;4.63;2.17;;;10.90;70.30;;;;;;5069064;28;20021;-87
2022/04/06 05:50:03;;;;;;;4.45;1.63;;;10.90;70.00;;;;;;5069467;28;20029;-87
2022/04/06 05:52:28;;;;;;;3.20;1.40;;;11.00;70.00;;;;;;5070503;28;20478;-86
2022/04/06 05:54:54;;;;;;;6.35;1.95;;;11.00;70.10;;;;;;5070026;28;20021;-88
2022/04/06 05:57:20;;;;;;;3.00;2.03;;;11.00;70.20;;;;;;5050852;28;20045;-86
2022/04/06 05:59:46;;;;;;;5.03;2.30;;;10.90;70.10;;;;;;5058139;28;20029;-88
2022/04/06 06:02:13;;;;;;;2.67;1.75;;;11.00;70.00;;;;;;5069089;28;20032;-85
2022/04/06 06:04:39;;;;;;;3.42;1.80;;;11.00;69.90;;;;;;5070276;28;20017;-86
2022/04/06 06:07:05;;;;;;;5.70;2.50;;;11.10;69.70;;;;;;5067083;28;20029;-89
2022/04/06 06:09:31;;;;;;;3.83;1.55;;;11.00;70.00;;;;;;5071573;28;20021;-88
2022/04/06 06:11:58;;;;;;;3.95;1.75;;;11.00;69.90;;;;;;5070239;28;20021;-88
2022/04/06 06:14:24;;;;;;;7.30;1.95;;;11.00;70.20;;;;;;5061589;28;20103;-87
2022/04/06 06:16:50;;;;;;;3.22;1.75;;;10.90;70.20;;;;;;5051992;28;20037;-88
2022/04/06 06:19:17;;;;;;;7.75;2.00;;;11.00;70.30;;;;;;5050770;28;20349;-88
2022/04/06 06:21:43;;;;;;;3.10;1.50;;;11.00;70.20;;;;;;5050191;28;20040;-87
2022/04/06 06:24:09;;;;;;;3.42;1.65;;;11.00;70.10;;;;;;5051016;28;20025;-88
2022/04/06 06:26:36;;;;;;;3.90;1.98;;;11.10;69.90;;;;;;5043433;28;20564;-88
2022/04/06 06:29:02;;;;;;;3.88;1.90;;;11.10;69.90;;;;;;5057829;28;20107;-88
2022/04/06 06:31:28;;;;;;;4.57;1.80;;;11.20;69.90;;;;;;5054084;28;20480;-88
2022/04/06 06:33:57;;;;;;;4.68;1.98;;;11.20;69.80;;;;;;5038099;28;20040;-88
2022/04/06 06:36:23;;;;;;;2.67;1.60;;;11.20;69.60;;;;;;5038759;28;20052;-88
2022/04/06 06:38:53;;;;;;;6.50;2.13;;;11.30;69.30;;;;;;5036959;28;20111;-88
2022/04/06 06:41:19;;;;;;;2.33;1.85;;;11.30;69.00;;;;;;5038123;28;20079;-88
2022/04/06 06:43:46;;;;;;;3.25;1.70;;;11.30;68.90;;;;;;5041156;28;20021;-87
2022/04/06 06:46:12;;;;;;;3.75;1.90;;;11.30;69.10;;;;;;5057979;28;20025;-87
2022/04/06 06:48:37;;;;;;;3.00;1.65;;;11.40;68.90;;;;;;5058020;28;20100;-88
2022/04/06 06:51:04;;;;;;;2.40;1.58;;;11.40;68.70;;;;;;5046129;28;20488;-88
2022/04/06 06:53:30;;;;;;;5.55;2.30;;;11.50;68.20;;;;;;5038055;28;20029;-87
2022/04/06 06:55:56;;;;;;;3.50;1.67;;;11.50;68.60;;;;;;5038075;28;20097;-89
2022/04/06 06:58:22;;;;;;;2.72;1.77;;;11.50;68.80;;;;;;5036820;28;20547;-88
2022/04/06 07:00:47;;;;;;;4.30;1.83;;;11.60;69.00;;;;;;5050507;28;20025;-88
2022/04/06 07:03:13;;;;;;;3.67;2.00;;;11.70;68.40;;;;;;5037499;28;20030;-87
2022/04/06 07:05:39;;;;;;;2.33;1.60;;;11.50;68.70;;;;;;5037684;28;20030;-88
2022/04/06 07:08:05;;;;;;;5.97;2.00;;;11.80;68.70;;;;;;5036236;28;20310;-88
2022/04/06 07:10:31;;;;;;;2.65;1.90;;;11.80;68.40;;;;;;5037697;28;20022;-88
2022/04/06 07:12:57;;;;;;;3.78;2.13;;;12.00;68.10;;;;;;5055805;28;20055;-88
2022/04/06 07:15:23;;;;;;;4.88;1.92;;;12.00;68.20;;;;;;5057436;28;20061;-89
2022/04/06 07:17:53;;;;;;;2.95;1.95;;;12.10;68.00;;;;;;5057601;28;20454;-88
2022/04/06 07:20:19;;;;;;;4.63;1.60;;;12.30;67.20;;;;;;5057196;28;20028;-87
2022/04/06 07:22:45;;;;;;;3.55;1.80;;;12.40;67.00;;;;;;5050968;28;20033;-87
2022/04/06 07:25:11;;;;;;;2.97;1.30;;;12.50;66.90;;;;;;5037377;28;20040;-89
2022/04/06 07:27:37;;;;;;;2.08;1.50;;;12.60;66.40;;;;;;5035846;28;20032;-88
2022/04/06 07:30:07;;;;;;;3.50;1.55;;;12.70;66.50;;;;;;5037175;28;20041;-88
2022/04/06 07:32:34;;;;;;;;;;;12.70;66.20;;;;;;5037698;28;20068;-88
2022/04/06 07:35:00;;;;;;;4.22;1.58;;;12.80;65.90;;;;;;5037209;28;19905;-88
2022/04/06 07:37:25;;;;;;;4.53;1.38;;;13.10;65.40;;;;;;5036270;28;20041;-89
2022/04/06 07:39:51;;;;;;;2.03;1.20;;;13.00;65.90;;;;;;5035669;28;20033;-88
2022/04/06 07:42:17;;;;;;;2.95;1.27;;;12.80;65.70;;;;;;5036530;28;20025;-88
2022/04/06 07:44:42;;;;;;;3.05;1.70;;;12.80;65.80;;;;;;5036872;28;20037;-87
2022/04/06 07:47:08;;;;;;;4.38;1.27;;;13.00;66.00;;;;;;5039498;28;20020;-88
2022/04/06 07:49:34;;;;;;;2.90;1.10;;;13.30;64.80;;;;;;5056710;28;20459;-87
2022/04/06 07:51:59;;;;;;;1.80;0.85;;;13.10;66.00;;;;;;5054696;28;20349;-88
2022/04/06 07:54:25;;;;;;;4.57;1.83;;;13.00;66.40;;;;;;5056720;28;20547;-89
2022/04/06 07:56:50;;;;;;;2.40;1.20;;;13.20;66.20;;;;;;5056636;28;20040;-89
2022/04/06 07:59:16;;;;;;;2.20;1.20;;;13.60;64.80;;;;;;5054402;28;20074;-88
2022/04/06 08:01:42;;;;;;;1.83;1.05;;;14.20;63.40;;;;;;5054963;28;20071;-87
2022/04/06 08:04:07;;;;;;;6.30;1.27;;;14.30;62.70;;;;;;5038789;28;20462;-87
2022/04/06 08:06:33;;;;;;;2.47;0.90;;;14.40;62.20;;;;;;5036714;28;20039;-87
2022/04/06 08:08:59;;;;;;;1.67;0.98;;;14.50;61.50;;;;;;5036382;28;20383;-88
2022/04/06 08:11:25;;;;;;;3.13;1.10;;;14.50;61.60;;;;;;5043926;28;20116;-88
2022/04/06 08:13:51;;;;;;;2.28;1.02;;;14.20;62.10;;;;;;5056183;28;20052;-88
2022/04/06 08:16:17;;;;;;;2.72;1.25;;;14.00;62.80;;;;;;5056183;28;20033;-88
2022/04/06 08:18:43;;;;;;;5.07;1.38;;;13.80;63.90;;;;;;5054039;28;20431;-88
2022/04/06 08:21:09;;;;;;;2.35;1.15;;;13.80;64.10;;;;;;5056317;28;20035;-87
2022/04/06 08:23:35;;;;;;;2.72;1.30;;;13.80;63.90;;;;;;5054783;28;20067;-88
2022/04/06 08:26:01;;;;;;;2.03;1.17;;;13.80;64.30;;;;;;5055919;28;20025;-88
2022/04/06 08:28:27;;;;;;;4.28;1.38;;;13.60;64.50;;;;;;5044637;28;20127;-87
2022/04/06 08:30:53;;;;;;;1.73;1.15;;;13.40;65.40;;;;;;5036022;28;20029;-87
2022/04/06 08:33:18;;;;;;;3.10;1.50;;;13.20;66.20;;;;;;5036089;28;20033;-88
2022/04/06 08:35:44;;;;;;;2.35;1.40;;;13.10;67.00;;;;;;5035866;28;20488;-87
2022/04/06 08:38:15;;;;;;;2.95;1.25;;;12.90;67.40;;;;;;5054219;28;20576;-87
2022/04/06 08:40:45;;;;;;;3.33;1.42;;;12.90;67.60;;;;;;5055620;28;20052;-88
2022/04/06 08:43:11;;;;;;;5.28;1.20;;;13.00;67.70;;;;;;5047584;28;20026;-88
2022/04/06 08:45:40;;;;;;;1.50;1.10;;;13.20;67.20;;;;;;5035901;28;20504;-87
2022/04/06 08:48:10;;;;;;;2.70;1.40;;;13.30;67.10;;;;;;5047744;28;20522;-88
2022/04/06 08:50:37;;;;;;;1.05;0.85;;;13.50;66.40;;;;;;5039164;28;20029;-88
2022/04/06 08:53:04;;;;;;;2.67;1.10;;;13.60;65.70;;;;;;5034035;28;20030;-88
2022/04/06 08:55:31;;;;;;;2.63;1.13;;;13.50;65.90;;;;;;5035581;28;20030;-87
2022/04/06 08:57:58;;;;;;;2.10;1.52;;;13.40;66.80;;;;;;5035497;28;20041;-87
2022/04/06 09:00:24;;;;;;;2.03;1.20;;;13.40;67.20;;;;;;5047449;28;20044;-87
2022/04/06 09:02:49;;;;;;;2.35;1.30;;;13.40;67.20;;;;;;5055663;28;20039;-87
2022/04/06 09:05:15;;;;;;;4.30;1.25;;;13.30;67.30;;;;;;5050265;28;20021;-86
2022/04/06 09:07:41;;;;;;;2.70;1.20;;;13.30;67.60;;;;;;5035538;28;20032;-87
2022/04/06 09:10:08;;;;;;;2.35;1.05;;;13.30;67.80;;;;;;5035392;28;20025;-87
2022/04/06 09:12:34;;;;;;;2.33;1.13;;;13.30;67.80;;;;;;5051530;28;20079;-87
2022/04/06 09:15:11;;;;;;;2.33;1.38;;;13.20;67.90;;;;;;5035308;28;20049;-87
2022/04/06 09:17:50;;;;;;;2.60;1.40;;;13.20;69.10;;;;;;5035005;28;20032;-87
2022/04/06 09:20:23;;;;;;;1.60;1.02;;;13.20;69.70;;;;;;5035747;28;20117;-87
2022/04/06 09:22:48;;;;;;;4.25;1.50;;;13.10;70.50;;;;;;5035589;28;20122;-88
2022/04/06 09:25:16;;;;;;;3.15;1.40;;;12.90;71.20;;;;;;5035145;28;20112;-87
2022/04/06 09:27:42;;;;;;;3.38;1.60;;;12.80;71.80;;;;;;5035454;28;20018;-88
2022/04/06 09:30:08;;;;;;;5.22;1.60;;;12.80;72.30;;;;;;5034082;28;20030;-88
2022/04/06 09:32:34;;;;;;;4.05;1.50;;;13.00;72.00;;;;;;5035358;28;20029;-88
2022/04/06 09:35:00;;;;;;;2.35;1.52;;;13.70;70.80;;;;;;5035071;28;20049;-88
2022/04/06 09:37:30;;;;;;;1.95;1.30;;;15.40;66.40;;;;;;5035034;28;20373;-88
2022/04/06 09:40:06;;;;;;;3.30;1.20;;;17.80;60.10;;;;;;5035000;28;20380;-88
2022/04/06 09:42:32;;;;;;;1.70;0.73;;;19.30;54.10;;;;;;5033577;28;20636;-87
2022/04/06 09:47:54;;;;;;;3.42;0.82;;;18.40;52.40;;;;;;5043991;28;20067;-87
2022/04/06 09:50:22;;;;;;;1.83;0.73;;;17.30;54.70;;;;;;5050654;28;20021;-88
2022/04/06 09:52:52;;;;;;;2.15;0.63;;;16.80;56.10;;;;;;5033542;28;20022;-88
2022/04/06 09:55:19;;;;;;;3.70;1.15;;;16.80;56.60;;;;;;5034708;28;20025;-87
2022/04/06 09:57:51;;;;;;;1.98;0.70;;;16.60;57.60;;;;;;5034846;28;20037;-88
2022/04/06 10:00:23;;;;;;;2.53;0.80;;;18.30;54.30;;;;;;5047382;28;20476;-88
2022/04/06 10:02:57;;;;;;;2.38;0.65;;;17.90;54.70;;;;;;5052850;28;20033;-88
2022/04/06 10:05:24;;;;;;;1.77;0.65;;;18.20;53.90;;;;;;5038702;28;20033;-88
2022/04/06 10:07:53;;;;;;;3.55;1.08;;;18.00;52.40;;;;;;5038899;28;20120;-88
2022/04/06 10:10:21;;;;;;;1.63;0.50;;;17.80;53.00;;;;;;5038672;28;20072;-88
2022/04/06 10:12:48;;;;;;;1.33;0.73;;;17.20;53.20;;;;;;5056932;28;20048;-88
2022/04/06 10:15:15;;;;;;;1.58;0.40;;;16.70;54.90;;;;;;5057095;28;20110;-88
2022/04/06 10:17:41;;;;;;;1.42;0.50;;;16.20;56.50;;;;;;5057198;28;20028;-87
2022/04/06 10:20:25;;;;;;;1.90;0.50;;;15.80;57.90;;;;;;5053200;28;20037;-88
2022/04/06 10:23:13;;;;;;;0.90;0.50;;;15.60;58.60;;;;;;5038455;28;20021;-87
2022/04/06 10:25:57;;;;;;;1.85;0.60;;;15.60;59.30;;;;;;5038263;28;20506;-88
2022/04/06 10:28:22;;;;;;;1.67;0.63;;;15.60;58.70;;;;;;5056623;28;20025;-88
2022/04/06 10:31:17;;;;;;;1.02;0.50;;;15.40;59.10;;;;;;5057044;28;20039;-89
2022/04/06 10:33:45;;;;;;;1.45;0.47;;;15.30;59.70;;;;;;5052914;28;20123;-89
2022/04/06 10:36:26;;;;;;;1.50;0.60;;;15.20;60.30;;;;;;5038234;28;20549;-88
2022/04/06 10:39:07;;;;;;;0.68;0.30;;;15.40;61.10;;;;;;5038523;28;20029;-88
2022/04/06 10:41:34;;;;;;;0.80;0.50;;;15.20;61.20;;;;;;5042462;28;20034;-88
2022/04/06 10:44:00;;;;;;;0.75;0.30;;;15.20;61.70;;;;;;5038029;28;20037;-88
2022/04/06 10:46:40;;;;;;;1.10;0.50;;;15.10;61.70;;;;;;5051333;28;20025;-88
2022/04/06 10:49:14;;;;;;;2.42;0.50;;;15.30;61.90;;;;;;5053309;28;20014;-88
2022/04/06 10:51:43;;;;;;;0.70;0.40;;;15.20;61.90;;;;;;5036651;28;20040;-88
2022/04/06 10:54:15;;;;;;;0.73;0.47;;;15.20;61.50;;;;;;5036784;28;20029;-89
2022/04/06 10:56:49;;;;;;;0.70;0.40;;;15.30;60.80;;;;;;5037942;28;20033;-88
2022/04/06 10:59:30;;;;;;;0.32;0.30;;;15.50;59.70;;;;;;5037608;28;20345;-88
2022/04/06 11:02:14;;;;;;;0.52;0.35;;;15.80;60.00;;;;;;5036162;28;20037;-88
2022/04/06 11:04:40;;;;;;;2.05;0.45;;;16.50;59.00;;;;;;5037498;28;20033;-89
2022/04/06 11:07:08;;;;;;;2.03;0.45;;;16.70;58.10;;;;;;5037579;28;20025;-87
2022/04/06 11:12:20;;;;;;;1.30;0.40;;;16.60;56.70;;;;;;5052355;28;20116;-88
2022/04/06 11:14:50;;;;;;;0.63;0.40;;;16.70;57.20;;;;;;5051269;28;20528;-88
2022/04/06 11:20:06;;;;;;;0.65;0.35;;;17.20;55.20;;;;;;5037452;28;20037;-87
2022/04/06 11:22:32;;;;;;;1.00;0.43;;;17.30;53.90;;;;;;5036009;28;20025;-88
2022/04/06 11:24:59;;;;;;;1.45;0.50;;;17.30;53.60;;;;;;5036979;28;20402;-88
2022/04/06 11:27:36;;;;;;;2.25;0.50;;;17.40;54.00;;;;;;5037213;28;20041;-88
2022/04/06 11:30:12;;;;;;;0.60;0.30;;;17.10;54.40;;;;;;5037111;28;20022;-87
2022/04/06 11:32:38;;;;;;;0.75;0.40;;;16.80;55.40;;;;;;5037000;28;20491;-88
2022/04/06 11:35:05;;;;;;;0.57;0.30;;;16.70;55.70;;;;;;5037196;28;20032;-88
2022/04/06 11:37:37;;;;;;;0.63;0.38;;;16.50;56.10;;;;;;5036944;28;20039;-88
2022/04/06 11:40:04;;;;;;;0.88;0.57;;;16.30;57.60;;;;;;5035406;28;21040;-88
2022/04/06 11:42:30;;;;;;;1.20;0.80;;;15.80;58.00;;;;;;5036889;28;20036;-88
2022/04/06 11:44:55;;;;;;;1.42;0.50;;;15.70;58.50;;;;;;5036875;28;20030;-88
2022/04/06 11:47:32;;;;;;;1.17;0.50;;;15.50;58.80;;;;;;5042837;28;20021;-87
2022/04/06 11:49:59;;;;;;;1.55;0.63;;;15.50;58.70;;;;;;5056932;28;20070;-87
2022/04/06 11:52:25;;;;;;;1.13;0.60;;;15.50;58.40;;;;;;5055471;28;20024;-88
2022/04/06 11:54:52;;;;;;;2.60;0.80;;;15.40;58.50;;;;;;5055436;28;20024;-88
2022/04/06 11:57:19;;;;;;;2.85;0.77;;;15.20;59.30;;;;;;5038474;28;20037;-88
2022/04/06 11:59:52;;;;;;;1.00;0.50;;;15.20;59.80;;;;;;5044360;28;20021;-88
2022/04/06 12:02:17;;;;;;;2.05;0.80;;;15.10;60.60;;;;;;5054066;28;20670;-83
2022/04/06 12:04:44;;;;;;;1.33;0.93;;;15.20;60.30;;;;;;5038591;28;20040;-83
2022/04/06 12:07:22;;;;;;;2.20;0.70;;;15.50;60.20;;;;;;5036108;28;20091;-83
2022/04/06 12:09:47;;;;;;;1.85;0.50;;;15.70;59.00;;;;;;5036550;28;20025;-84
2022/04/06 12:12:13;;;;;;;2.60;0.68;;;15.80;58.90;;;;;;5039943;28;20040;-83
2022/04/06 12:14:41;;;;;;;0.93;0.57;;;16.00;58.70;;;;;;5049303;28;20041;-83
2022/04/06 12:17:07;;;;;;;1.55;0.70;;;16.00;58.20;;;;;;5045342;28;20040;-87
2022/04/06 12:19:33;;;;;;;2.95;0.60;;;15.80;58.10;;;;;;5049709;28;20105;-85
2022/04/06 12:22:07;;;;;;;2.28;0.88;;;15.60;58.70;;;;;;5055627;28;20029;-83
2022/04/06 12:24:40;;;;;;;2.45;0.80;;;15.60;59.20;;;;;;5052287;28;20032;-78
2022/04/06 12:27:06;;;;;;;1.77;0.70;;;15.40;59.40;;;;;;5048093;28;20021;-86
2022/04/06 12:29:33;;;;;;;5.65;1.05;;;15.30;59.70;;;;;;5054342;28;20040;-85
2022/04/06 12:32:00;;;;;;;1.83;0.70;;;15.20;60.00;;;;;;5055148;28;20025;-84
2022/04/06 12:34:37;;;;;;;1.58;0.60;;;15.20;60.00;;;;;;5051784;28;20032;-85
2022/04/06 12:39:54;;;;;;;1.60;0.43;;;15.40;59.20;;;;;;5051939;28;20058;-85
2022/04/06 12:42:22;;;;;;;1.98;0.70;;;15.20;59.70;;;;;;5054082;28;20021;-85
2022/04/06 12:45:00;;;;;;;1.40;1.02;;;15.50;59.30;;;;;;5053015;28;20229;-84
2022/04/06 12:47:26;;;;;;;4.95;0.80;;;15.60;59.10;;;;;;5054242;28;20021;-84
2022/04/06 12:50:13;;;;;;;1.60;0.82;;;15.90;58.60;;;;;;5053677;28;20017;-84
2022/04/06 12:52:39;;;;;;;2.88;0.82;;;16.00;57.70;;;;;;5052176;28;20028;-85
2022/04/06 12:55:07;;;;;;;2.45;0.60;;;16.10;57.80;;;;;;5054119;28;20100;-84
2022/04/06 12:57:37;;;;;;;1.92;0.70;;;16.20;57.60;;;;;;5049305;28;20052;-84
2022/04/06 13:00:13;;;;;;;1.35;0.75;;;16.20;57.80;;;;;;5054076;28;20430;-84
2022/04/06 13:02:49;;;;;;;2.63;0.70;;;16.10;57.40;;;;;;5049971;28;20044;-85
2022/04/06 13:05:20;;;;;;;2.72;0.70;;;16.20;57.50;;;;;;5047974;28;20017;-85
2022/04/06 13:07:49;;;;;;;7.00;0.85;;;16.10;58.10;;;;;;5053206;28;20025;-85
2022/04/06 13:10:19;;;;;;;3.03;0.70;;;15.80;58.20;;;;;;5049934;28;20075;-85
2022/04/06 13:12:46;;;;;;;;;;;15.70;59.00;;;;;;5054847;28;20108;-85
2022/04/06 13:15:13;;;;;;;1.50;0.60;;;15.60;59.10;;;;;;5052998;28;19917;-84
2022/04/06 13:17:40;;;;;;;3.10;1.23;;;15.70;59.30;;;;;;5053609;28;20635;-85
2022/04/06 13:20:11;;;;;;;3.15;0.50;;;15.70;59.50;;;;;;5054902;28;20029;-84
2022/04/06 13:22:38;;;;;;;6.60;1.13;;;15.50;60.50;;;;;;5053344;28;20479;-84
2022/04/06 13:25:04;;;;;;;3.28;0.73;;;15.30;60.50;;;;;;5034633;28;20068;-84